首页
METAR-TAF:

METAR-TAF

机场 :

Brunswick County Airport

Southport, 北卡罗来纳州, 美国

纬度: 33-55-45N, 经度: 078-04-29W, 海拔: 8米

当前天气观测

该预报发布于30分钟前的09:40 UTC
风速4节,风向南转西南
温度 25°C
湿度 94%
气压 1019 hPa
多云层高于500英尺
阴天层高于800英尺

METAR: KSUT 260940Z AUTO 21004KT BKN005 OVC008 25/24 A3010 RMK AO2 T02510243 PWINO

时间: 06:10 (10:10 UTC)


TAF: 丢失

超过4000个机场的气象观测和天气预报(METAR&TAF报告)。

可查询的气象台以黄色和红色小点在地图上表示。

将鼠标移到小点上方,可查看气象台名称。

然后点击查看天气观测和预报。

如需切换地图:点击带黑十字的绿色按钮放大地图;点击带横线的绿色按钮缩小地图;或者点击绿色箭头查看邻近地区的地图。


METAR-TAF: